Castaert Cam Meer informatie Castaert Cam


puppycam Meer informatie puppycam


Bezoek onze andere website:


U vindt ons ook hier:

Het Weer Aktueel

European Weather Network

Weather Underground

WeatherlinkIP

HAMweather, WeatherForYou, PWS Weather



Het weer levert geen direct gevaar op.    Er zijn geen waarschuwingen afgegeven.

METAR rapporten vliegvelden

   
EHGR - Tilburg
Gewijzigd: 24-06-2018 05:08
Nevel, Grotendeels bewolkt  
Nevel, Grotendeels bewolkt  
   Wind: WNW 3.7 km/h
Wind: WNW 3.7 km/h
Temperatuur: 9°C
Dauwpunt: 9°C
Vochtigheid: 100%
Barometer: 1023 mb
Bewolking: Grotendeels bewolkt
Zicht: 6 km
Bewolking: Gedeeltelijk bewolkt 426.7 m,
Grotendeels bewolkt 3657.6 m
EHGR 240308Z AUTO 29002KT 6000 BR SCT014 BKN120 09/09 Q1023 GRN
EHEH - Eindhoven
Gewijzigd: 24-06-2018 05:00
Nevel, Bewolking  
Nevel, Bewolking  
   Wind: Kalm
Wind: Kalm
Temperatuur: 9°C
Dauwpunt: 9°C
Vochtigheid: 100%
Barometer: 1022 mb
Bewolking: Bewolking
Zicht: 7 km
Bewolking: Bewolking 10972.8 m
EHEH 240300Z AUTO 00000KT 7000 BR OVC360 09/09 Q1022 WHT
EBBL - Olmen
Gewijzigd: 24-06-2018 05:03
Mist, Helder  
Mist, Helder  
   Wind: varieert 1.9 km/h
Wind: varieert 1.9 km/h
Temperatuur: 9°C
Dauwpunt: 9°C
Vochtigheid: 100%
Barometer: 1023 mb
Bewolking: Helder
Zicht: 0 km
Bewolking: Helder
EBBL 240303Z AUTO VRB01KT 0200 FG NCD 09/09 Q1023 RED
EDSB - Lachen
Gewijzigd: 24-06-2018 04:50
Helder  
Helder  
   Wind: Noorden 3.7 km/h
Wind: Noorden 3.7 km/h
Temperatuur: 10°C
Dauwpunt: 9°C
Vochtigheid: 94%
Barometer: 1022 mb
Zicht: meer dan 10 km
Bewolking: Helder
EDSB 240250Z 36002KT CAVOK 10/09 Q1022
  

Script ontwikkeld door  Saratoga-weather.org Aangepast voor de template door  Weerstation Leuven